sensor_id;sensor_type;location;lat;lon;timestamp;pressure;altitude;pressure_sealevel;temperature
71640;BMP280;60912;48.968;10.124;2023-04-03T00:01:47;97304.06;;;4.74
71640;BMP280;60912;48.968;10.124;2023-04-03T00:04:12;97293.13;;;4.68
71640;BMP280;60912;48.968;10.124;2023-04-03T00:06:38;97296.56;;;4.69
71640;BMP280;60912;48.968;10.124;2023-04-03T00:09:03;97295.38;;;4.75
71640;BMP280;60912;48.968;10.124;2023-04-03T00:11:28;97298.66;;;4.79
71640;BMP280;60912;48.968;10.124;2023-04-03T00:13:54;97301.31;;;4.74
71640;BMP280;60912;48.968;10.124;2023-04-03T00:16:19;97295.19;;;4.79
71640;BMP280;60912;48.968;10.124;2023-04-03T00:18:45;97289.16;;;4.75
71640;BMP280;60912;48.968;10.124;2023-04-03T00:21:12;97298.34;;;4.72
71640;BMP280;60912;48.968;10.124;2023-04-03T00:23:38;97298.78;;;4.65
71640;BMP280;60912;48.968;10.124;2023-04-03T00:26:03;97302.25;;;4.65
71640;BMP280;60912;48.968;10.124;2023-04-03T00:28:29;97301.06;;;4.72
71640;BMP280;60912;48.968;10.124;2023-04-03T00:30:54;97298.91;;;4.81
71640;BMP280;60912;48.968;10.124;2023-04-03T00:33:20;97303.72;;;4.92
71640;BMP280;60912;48.968;10.124;2023-04-03T00:35:50;97303.41;;;4.84
71640;BMP280;60912;48.968;10.124;2023-04-03T00:38:16;97296.41;;;4.78
71640;BMP280;60912;48.968;10.124;2023-04-03T00:40:44;97298.19;;;4.81
71640;BMP280;60912;48.968;10.124;2023-04-03T00:43:16;97297.47;;;4.86
71640;BMP280;60912;48.968;10.124;2023-04-03T00:45:52;97295.94;;;4.79
71640;BMP280;60912;48.968;10.124;2023-04-03T00:48:40;97298.19;;;4.81
71640;BMP280;60912;48.968;10.124;2023-04-03T00:51:09;97290.78;;;4.87
71640;BMP280;60912;48.968;10.124;2023-04-03T00:53:46;97299.41;;;4.80
71640;BMP280;60912;48.968;10.124;2023-04-03T00:56:15;97302.16;;;4.80
71640;BMP280;60912;48.968;10.124;2023-04-03T01:01:31;97299.13;;;4.78
71640;BMP280;60912;48.968;10.124;2023-04-03T01:03:58;97294.47;;;4.58
71640;BMP280;60912;48.968;10.124;2023-04-03T01:06:27;97295.22;;;4.59
71640;BMP280;60912;48.968;10.124;2023-04-03T01:08:54;97289.47;;;4.57
71640;BMP280;60912;48.968;10.124;2023-04-03T01:11:20;97289.09;;;4.64
71640;BMP280;60912;48.968;10.124;2023-04-03T01:13:46;97302.72;;;4.64
71640;BMP280;60912;48.968;10.124;2023-04-03T01:16:12;97294.38;;;4.73
71640;BMP280;60912;48.968;10.124;2023-04-03T01:18:39;97297.94;;;4.59
71640;BMP280;60912;48.968;10.124;2023-04-03T01:26:55;97288.31;;;4.37
71640;BMP280;60912;48.968;10.124;2023-04-03T01:29:20;97284.09;;;4.36
71640;BMP280;60912;48.968;10.124;2023-04-03T01:31:51;97289.63;;;4.42
71640;BMP280;60912;48.968;10.124;2023-04-03T01:34:17;97298.22;;;4.35
71640;BMP280;60912;48.968;10.124;2023-04-03T01:36:43;97291.03;;;4.37
71640;BMP280;60912;48.968;10.124;2023-04-03T01:39:08;97296.06;;;4.44
71640;BMP280;60912;48.968;10.124;2023-04-03T01:41:34;97300.72;;;4.38
71640;BMP280;60912;48.968;10.124;2023-04-03T01:44:00;97302.75;;;4.43
71640;BMP280;60912;48.968;10.124;2023-04-03T01:46:25;97303.75;;;4.40
71640;BMP280;60912;48.968;10.124;2023-04-03T01:48:51;97293.78;;;4.37
71640;BMP280;60912;48.968;10.124;2023-04-03T01:51:16;97294.28;;;4.36
71640;BMP280;60912;48.968;10.124;2023-04-03T01:53:42;97299.97;;;4.38
71640;BMP280;60912;48.968;10.124;2023-04-03T01:56:07;97290.94;;;4.26
71640;BMP280;60912;48.968;10.124;2023-04-03T01:58:32;97292.81;;;4.40
71640;BMP280;60912;48.968;10.124;2023-04-03T02:00:58;97295.94;;;4.54
71640;BMP280;60912;48.968;10.124;2023-04-03T02:03:23;97294.47;;;4.58
71640;BMP280;60912;48.968;10.124;2023-04-03T02:05:50;97300.00;;;4.64
71640;BMP280;60912;48.968;10.124;2023-04-03T02:08:16;97306.00;;;4.68
71640;BMP280;60912;48.968;10.124;2023-04-03T02:10:43;97306.69;;;4.63
71640;BMP280;60912;48.968;10.124;2023-04-03T02:13:10;97304.63;;;4.58
71640;BMP280;60912;48.968;10.124;2023-04-03T02:15:38;97307.81;;;4.51
71640;BMP280;60912;48.968;10.124;2023-04-03T02:18:03;97299.91;;;4.53
71640;BMP280;60912;48.968;10.124;2023-04-03T02:20:29;97299.94;;;4.58
71640;BMP280;60912;48.968;10.124;2023-04-03T02:22:54;97305.66;;;4.60
71640;BMP280;60912;48.968;10.124;2023-04-03T02:25:19;97302.25;;;4.65
71640;BMP280;60912;48.968;10.124;2023-04-03T02:27:45;97302.66;;;4.58
71640;BMP280;60912;48.968;10.124;2023-04-03T02:30:11;97297.56;;;4.66
71640;BMP280;60912;48.968;10.124;2023-04-03T02:32:36;97297.28;;;4.64
71640;BMP280;60912;48.968;10.124;2023-04-03T02:35:02;97296.56;;;4.43
71640;BMP280;60912;48.968;10.124;2023-04-03T02:37:27;97300.31;;;4.45
71640;BMP280;60912;48.968;10.124;2023-04-03T02:39:53;97300.09;;;4.49
71640;BMP280;60912;48.968;10.124;2023-04-03T02:42:18;97295.94;;;4.54
71640;BMP280;60912;48.968;10.124;2023-04-03T02:44:43;97308.38;;;4.55
71640;BMP280;60912;48.968;10.124;2023-04-03T02:47:09;97297.47;;;4.55
71640;BMP280;60912;48.968;10.124;2023-04-03T02:49:35;97301.44;;;4.59
71640;BMP280;60912;48.968;10.124;2023-04-03T02:52:00;97304.13;;;4.54
71640;BMP280;60912;48.968;10.124;2023-04-03T02:54:25;97302.38;;;4.51
71640;BMP280;60912;48.968;10.124;2023-04-03T02:56:53;97297.09;;;4.47
71640;BMP280;60912;48.968;10.124;2023-04-03T02:59:19;97302.38;;;4.51
71640;BMP280;60912;48.968;10.124;2023-04-03T03:01:45;97306.31;;;4.49
71640;BMP280;60912;48.968;10.124;2023-04-03T03:04:10;97306.88;;;4.54
71640;BMP280;60912;48.968;10.124;2023-04-03T03:06:35;97298.94;;;4.56
71640;BMP280;60912;48.968;10.124;2023-04-03T03:09:01;97301.44;;;4.59
71640;BMP280;60912;48.968;10.124;2023-04-03T03:11:26;97305.50;;;4.43
71640;BMP280;60912;48.968;10.124;2023-04-03T03:13:52;97298.81;;;4.44
71640;BMP280;60912;48.968;10.124;2023-04-03T03:16:17;97310.28;;;4.48
71640;BMP280;60912;48.968;10.124;2023-04-03T03:18:42;97306.03;;;4.47
71640;BMP280;60912;48.968;10.124;2023-04-03T03:21:09;97299.56;;;4.45
71640;BMP280;60912;48.968;10.124;2023-04-03T03:23:35;97296.19;;;4.30
71640;BMP280;60912;48.968;10.124;2023-04-03T03:26:03;97292.84;;;4.20
71640;BMP280;60912;48.968;10.124;2023-04-03T03:28:30;97295.03;;;4.16
71640;BMP280;60912;48.968;10.124;2023-04-03T03:30:56;97300.50;;;4.16
71640;BMP280;60912;48.968;10.124;2023-04-03T03:33:22;97298.72;;;4.13
71640;BMP280;60912;48.968;10.124;2023-04-03T03:35:47;97308.91;;;4.18
71640;BMP280;60912;48.968;10.124;2023-04-03T03:38:13;97300.06;;;4.23
71640;BMP280;60912;48.968;10.124;2023-04-03T03:40:38;97299.50;;;4.19
71640;BMP280;60912;48.968;10.124;2023-04-03T03:43:03;97295.28;;;4.18
71640;BMP280;60912;48.968;10.124;2023-04-03T03:45:29;97295.03;;;4.16
71640;BMP280;60912;48.968;10.124;2023-04-03T03:47:54;97290.19;;;4.05
71640;BMP280;60912;48.968;10.124;2023-04-03T03:50:20;97296.38;;;4.06
71640;BMP280;60912;48.968;10.124;2023-04-03T03:52:45;97292.72;;;3.89
71640;BMP280;60912;48.968;10.124;2023-04-03T03:55:11;97295.84;;;4.02
71640;BMP280;60912;48.968;10.124;2023-04-03T03:57:36;97296.66;;;4.08
71640;BMP280;60912;48.968;10.124;2023-04-03T04:00:03;97295.28;;;4.18
71640;BMP280;60912;48.968;10.124;2023-04-03T04:02:29;97302.53;;;4.21
71640;BMP280;60912;48.968;10.124;2023-04-03T04:04:55;97292.34;;;4.22
71640;BMP280;60912;48.968;10.124;2023-04-03T04:07:21;97302.41;;;4.10
71640;BMP280;60912;48.968;10.124;2023-04-03T04:09:46;97300.38;;;4.05
71640;BMP280;60912;48.968;10.124;2023-04-03T04:12:12;97304.56;;;4.06
71640;BMP280;60912;48.968;10.124;2023-04-03T04:14:37;97297.97;;;4.13
71640;BMP280;60912;48.968;10.124;2023-04-03T04:17:02;97302.97;;;4.14
71640;BMP280;60912;48.968;10.124;2023-04-03T04:19:28;97302.00;;;4.17
71640;BMP280;60912;48.968;10.124;2023-04-03T04:21:53;97299.50;;;4.19
71640;BMP280;60912;48.968;10.124;2023-04-03T04:24:19;97301.19;;;4.11
71640;BMP280;60912;48.968;10.124;2023-04-03T04:26:44;97301.66;;;4.09
71640;BMP280;60912;48.968;10.124;2023-04-03T04:29:10;97299.34;;;4.02
71640;BMP280;60912;48.968;10.124;2023-04-03T04:31:35;97303.16;;;4.10
71640;BMP280;60912;48.968;10.124;2023-04-03T04:34:01;97299.06;;;4.00
71640;BMP280;60912;48.968;10.124;2023-04-03T04:36:26;97303.28;;;4.01
71640;BMP280;60912;48.968;10.124;2023-04-03T04:38:52;97301.59;;;4.04
71640;BMP280;60912;48.968;10.124;2023-04-03T04:41:21;97309.63;;;3.93
71640;BMP280;60912;48.968;10.124;2023-04-03T04:43:48;97304.78;;;3.82
71640;BMP280;60912;48.968;10.124;2023-04-03T04:46:14;97310.16;;;3.77
71640;BMP280;60912;48.968;10.124;2023-04-03T04:48:39;97314.31;;;3.72
71640;BMP280;60912;48.968;10.124;2023-04-03T04:51:05;97317.22;;;3.68
71640;BMP280;60912;48.968;10.124;2023-04-03T04:53:31;97310.28;;;3.67
71640;BMP280;60912;48.968;10.124;2023-04-03T04:55:56;97309.28;;;3.50
71640;BMP280;60912;48.968;10.124;2023-04-03T04:58:22;97315.72;;;3.32
71640;BMP280;60912;48.968;10.124;2023-04-03T05:00:47;97313.09;;;3.23
71640;BMP280;60912;48.968;10.124;2023-04-03T05:03:13;97315.63;;;3.27
71640;BMP280;60912;48.968;10.124;2023-04-03T05:05:38;97314.81;;;3.21
71640;BMP280;60912;48.968;10.124;2023-04-03T05:08:04;97322.00;;;3.24
71640;BMP280;60912;48.968;10.124;2023-04-03T05:10:30;97324.00;;;3.23
71640;BMP280;60912;48.968;10.124;2023-04-03T05:12:57;97322.97;;;3.21
71640;BMP280;60912;48.968;10.124;2023-04-03T05:15:23;97323.22;;;3.23
71640;BMP280;60912;48.968;10.124;2023-04-03T05:17:48;97328.41;;;3.36
71640;BMP280;60912;48.968;10.124;2023-04-03T05:20:14;97329.97;;;3.42
71640;BMP280;60912;48.968;10.124;2023-04-03T05:22:40;97321.97;;;3.53
71640;BMP280;60912;48.968;10.124;2023-04-03T05:25:06;97325.25;;;3.57
71640;BMP280;60912;48.968;10.124;2023-04-03T05:27:31;97319.50;;;3.55
71640;BMP280;60912;48.968;10.124;2023-04-03T05:29:57;97321.47;;;3.55
71640;BMP280;60912;48.968;10.124;2023-04-03T05:32:23;97332.31;;;3.49
71640;BMP280;60912;48.968;10.124;2023-04-03T05:34:48;97332.88;;;3.53
71640;BMP280;60912;48.968;10.124;2023-04-03T05:37:14;97334.38;;;3.54
71640;BMP280;60912;48.968;10.124;2023-04-03T05:39:39;97331.53;;;3.63
71640;BMP280;60912;48.968;10.124;2023-04-03T05:42:06;97332.31;;;3.64
71640;BMP280;60912;48.968;10.124;2023-04-03T05:44:32;97339.78;;;3.69
71640;BMP280;60912;48.968;10.124;2023-04-03T05:46:57;97340.69;;;3.81
71640;BMP280;60912;48.968;10.124;2023-04-03T05:49:22;97330.34;;;3.85
71640;BMP280;60912;48.968;10.124;2023-04-03T05:51:48;97337.78;;;3.84
71640;BMP280;60912;48.968;10.124;2023-04-03T05:54:19;97342.13;;;3.96
71640;BMP280;60912;48.968;10.124;2023-04-03T05:56:46;97338.63;;;5.08
71640;BMP280;60912;48.968;10.124;2023-04-03T05:59:11;97340.09;;;5.04
71640;BMP280;60912;48.968;10.124;2023-04-03T06:01:37;97345.72;;;4.69
71640;BMP280;60912;48.968;10.124;2023-04-03T06:04:03;97344.06;;;4.57
71640;BMP280;60912;48.968;10.124;2023-04-03T06:08:58;97349.31;;;4.34
71640;BMP280;60912;48.968;10.124;2023-04-03T06:11:23;97352.06;;;4.34
71640;BMP280;60912;48.968;10.124;2023-04-03T06:13:48;97349.50;;;4.31
71640;BMP280;60912;48.968;10.124;2023-04-03T06:16:14;97356.00;;;4.54
71640;BMP280;60912;48.968;10.124;2023-04-03T06:18:40;97353.66;;;4.46
71640;BMP280;60912;48.968;10.124;2023-04-03T06:21:06;97351.25;;;4.28
71640;BMP280;60912;48.968;10.124;2023-04-03T06:23:32;97352.03;;;3.94
71640;BMP280;60912;48.968;10.124;2023-04-03T06:25:58;97358.72;;;3.93
71640;BMP280;60912;48.968;10.124;2023-04-03T06:28:23;97356.66;;;3.88
71640;BMP280;60912;48.968;10.124;2023-04-03T06:30:49;97360.63;;;3.87
71640;BMP280;60912;48.968;10.124;2023-04-03T06:33:14;97364.28;;;3.84
71640;BMP280;60912;48.968;10.124;2023-04-03T06:35:40;97363.63;;;4.09
71640;BMP280;60912;48.968;10.124;2023-04-03T06:38:05;97364.50;;;4.21
71640;BMP280;60912;48.968;10.124;2023-04-03T06:40:35;97364.97;;;4.60
71640;BMP280;60912;48.968;10.124;2023-04-03T06:43:00;97375.59;;;4.78
71640;BMP280;60912;48.968;10.124;2023-04-03T06:45:26;97375.91;;;5.11
71640;BMP280;60912;48.968;10.124;2023-04-03T06:47:51;97374.16;;;5.08
71640;BMP280;60912;48.968;10.124;2023-04-03T06:50:17;97375.63;;;5.09
71640;BMP280;60912;48.968;10.124;2023-04-03T06:52:42;97374.41;;;4.84
71640;BMP280;60912;48.968;10.124;2023-04-03T06:55:08;97366.84;;;4.74
71640;BMP280;60912;48.968;10.124;2023-04-03T06:57:37;97372.53;;;4.70
71640;BMP280;60912;48.968;10.124;2023-04-03T07:00:04;97375.13;;;4.59
71640;BMP280;60912;48.968;10.124;2023-04-03T07:02:30;97374.97;;;4.42
71640;BMP280;60912;48.968;10.124;2023-04-03T07:04:56;97376.44;;;4.43
71640;BMP280;60912;48.968;10.124;2023-04-03T07:07:21;97379.22;;;4.95
71640;BMP280;60912;48.968;10.124;2023-04-03T07:09:47;97376.38;;;5.10
71640;BMP280;60912;48.968;10.124;2023-04-03T07:12:13;97379.56;;;5.03
71640;BMP280;60912;48.968;10.124;2023-04-03T07:14:38;97383.25;;;5.00
71640;BMP280;60912;48.968;10.124;2023-04-03T07:17:04;97385.13;;;5.40
71640;BMP280;60912;48.968;10.124;2023-04-03T07:19:30;97393.31;;;5.40
71640;BMP280;60912;48.968;10.124;2023-04-03T07:21:56;97399.38;;;5.23
71640;BMP280;60912;48.968;10.124;2023-04-03T07:24:21;97393.31;;;5.14
71640;BMP280;60912;48.968;10.124;2023-04-03T07:26:51;97398.84;;;5.19
71640;BMP280;60912;48.968;10.124;2023-04-03T07:29:17;97394.19;;;5.25
71640;BMP280;60912;48.968;10.124;2023-04-03T07:31:42;97406.13;;;5.28
71640;BMP280;60912;48.968;10.124;2023-04-03T07:34:10;97405.59;;;5.24
71640;BMP280;60912;48.968;10.124;2023-04-03T07:36:35;97395.41;;;5.24
71640;BMP280;60912;48.968;10.124;2023-04-03T07:39:01;97403.34;;;5.22
71640;BMP280;60912;48.968;10.124;2023-04-03T07:41:26;97411.16;;;5.09
71640;BMP280;60912;48.968;10.124;2023-04-03T07:43:52;97406.91;;;5.03
71640;BMP280;60912;48.968;10.124;2023-04-03T07:46:18;97403.22;;;4.85
71640;BMP280;60912;48.968;10.124;2023-04-03T07:48:43;97410.28;;;5.18
71640;BMP280;60912;48.968;10.124;2023-04-03T07:51:09;97416.25;;;5.22
71640;BMP280;60912;48.968;10.124;2023-04-03T07:53:34;97426.16;;;5.19
71640;BMP280;60912;48.968;10.124;2023-04-03T07:56:00;97405.38;;;5.27
71640;BMP280;60912;48.968;10.124;2023-04-03T07:58:29;97410.72;;;5.42
71640;BMP280;60912;48.968;10.124;2023-04-03T08:00:54;97412.16;;;5.38
71640;BMP280;60912;48.968;10.124;2023-04-03T08:03:20;97415.31;;;5.25
71640;BMP280;60912;48.968;10.124;2023-04-03T08:05:47;97418.91;;;5.42
71640;BMP280;60912;48.968;10.124;2023-04-03T08:08:15;97416.56;;;5.30
71640;BMP280;60912;48.968;10.124;2023-04-03T08:10:41;97427.66;;;5.20
71640;BMP280;60912;48.968;10.124;2023-04-03T08:13:07;97423.25;;;5.28
71640;BMP280;60912;48.968;10.124;2023-04-03T08:15:33;97429.63;;;5.46
71640;BMP280;60912;48.968;10.124;2023-04-03T08:17:59;97423.66;;;5.42
71640;BMP280;60912;48.968;10.124;2023-04-03T08:20:26;97424.41;;;5.48
71640;BMP280;60912;48.968;10.124;2023-04-03T08:22:52;97415.47;;;5.47
71640;BMP280;60912;48.968;10.124;2023-04-03T08:25:17;97433.38;;;5.48
71640;BMP280;60912;48.968;10.124;2023-04-03T08:27:43;97434.03;;;5.38
71640;BMP280;60912;48.968;10.124;2023-04-03T08:30:09;97432.06;;;5.38
71640;BMP280;60912;48.968;10.124;2023-04-03T08:32:35;97430.84;;;5.45
71640;BMP280;60912;48.968;10.124;2023-04-03T08:35:01;97427.63;;;5.46
71640;BMP280;60912;48.968;10.124;2023-04-03T08:37:27;97434.31;;;5.45
71640;BMP280;60912;48.968;10.124;2023-04-03T08:39:53;97439.19;;;5.61
71640;BMP280;60912;48.968;10.124;2023-04-03T08:44:56;97447.72;;;6.06
71640;BMP280;60912;48.968;10.124;2023-04-03T08:50:15;97445.91;;;5.97
71640;BMP280;60912;48.968;10.124;2023-04-03T08:52:48;97449.19;;;5.70
71640;BMP280;60912;48.968;10.124;2023-04-03T08:55:28;97445.44;;;5.99
71640;BMP280;60912;48.968;10.124;2023-04-03T08:58:03;97444.13;;;6.31
71640;BMP280;60912;48.968;10.124;2023-04-03T09:00:41;97447.66;;;6.48
71640;BMP280;60912;48.968;10.124;2023-04-03T09:03:13;97456.72;;;6.66
71640;BMP280;60912;48.968;10.124;2023-04-03T09:05:47;97449.66;;;6.48
71640;BMP280;60912;48.968;10.124;2023-04-03T09:17:15;97458.31;;;6.35
71640;BMP280;60912;48.968;10.124;2023-04-03T09:19:56;97453.00;;;6.21
71640;BMP280;60912;48.968;10.124;2023-04-03T09:22:24;97461.22;;;6.21
71640;BMP280;60912;48.968;10.124;2023-04-03T09:24:57;97446.25;;;6.11
71640;BMP280;60912;48.968;10.124;2023-04-03T09:27:24;97452.00;;;6.18
71640;BMP280;60912;48.968;10.124;2023-04-03T09:29:53;97460.09;;;6.44
71640;BMP280;60912;48.968;10.124;2023-04-03T09:32:33;97461.72;;;6.67
71640;BMP280;60912;48.968;10.124;2023-04-03T09:35:03;97449.19;;;6.61
71640;BMP280;60912;48.968;10.124;2023-04-03T09:40:03;97448.25;;;6.75
71640;BMP280;60912;48.968;10.124;2023-04-03T09:42:30;97450.53;;;6.87
71640;BMP280;60912;48.968;10.124;2023-04-03T09:44:59;97453.56;;;7.12
71640;BMP280;60912;48.968;10.124;2023-04-03T09:47:27;97450.81;;;6.95
71640;BMP280;60912;48.968;10.124;2023-04-03T09:52:41;97456.06;;;7.10
71640;BMP280;60912;48.968;10.124;2023-04-03T09:55:19;97449.34;;;7.22
71640;BMP280;60912;48.968;10.124;2023-04-03T09:57:47;97450.81;;;7.01
71640;BMP280;60912;48.968;10.124;2023-04-03T10:00:37;97443.56;;;6.86
71640;BMP280;60912;48.968;10.124;2023-04-03T10:03:04;97446.56;;;6.88
71640;BMP280;60912;48.968;10.124;2023-04-03T10:05:39;97448.78;;;6.84
71640;BMP280;60912;48.968;10.124;2023-04-03T10:10:48;97443.50;;;6.64
71640;BMP280;60912;48.968;10.124;2023-04-03T10:13:29;97444.75;;;6.63
71640;BMP280;60912;48.968;10.124;2023-04-03T10:16:08;97447.09;;;6.33
71640;BMP280;60912;48.968;10.124;2023-04-03T10:18:44;97448.81;;;6.25
71640;BMP280;60912;48.968;10.124;2023-04-03T10:21:17;97445.50;;;6.10
71640;BMP280;60912;48.968;10.124;2023-04-03T10:23:54;97440.25;;;6.06
71640;BMP280;60912;48.968;10.124;2023-04-03T10:29:31;97448.44;;;6.01
71640;BMP280;60912;48.968;10.124;2023-04-03T10:34:45;97435.81;;;6.74
71640;BMP280;60912;48.968;10.124;2023-04-03T10:47:34;97434.16;;;6.34
71640;BMP280;60912;48.968;10.124;2023-04-03T10:52:41;97438.66;;;6.37
71640;BMP280;60912;48.968;10.124;2023-04-03T10:57:59;97428.03;;;6.61
71640;BMP280;60912;48.968;10.124;2023-04-03T11:00:47;97431.88;;;6.80
71640;BMP280;60912;48.968;10.124;2023-04-03T11:03:21;97440.56;;;6.79
71640;BMP280;60912;48.968;10.124;2023-04-03T11:05:52;97437.59;;;6.82
71640;BMP280;60912;48.968;10.124;2023-04-03T11:11:32;97426.53;;;6.60
71640;BMP280;60912;48.968;10.124;2023-04-03T11:14:09;97426.84;;;6.73
71640;BMP280;60912;48.968;10.124;2023-04-03T11:16:40;97425.16;;;6.93
71640;BMP280;60912;48.968;10.124;2023-04-03T11:19:18;97427.66;;;6.91
71640;BMP280;60912;48.968;10.124;2023-04-03T11:21:57;97413.69;;;7.00
71640;BMP280;60912;48.968;10.124;2023-04-03T11:24:29;97415.94;;;7.12
71640;BMP280;60912;48.968;10.124;2023-04-03T11:26:58;97410.47;;;7.35
71640;BMP280;60912;48.968;10.124;2023-04-03T11:29:35;97407.75;;;7.29
71640;BMP280;60912;48.968;10.124;2023-04-03T11:34:50;97410.97;;;7.22
71640;BMP280;60912;48.968;10.124;2023-04-03T11:39:59;97409.88;;;6.64
71640;BMP280;60912;48.968;10.124;2023-04-03T11:42:38;97417.09;;;6.61
71640;BMP280;60912;48.968;10.124;2023-04-03T11:47:54;97411.59;;;6.50
71640;BMP280;60912;48.968;10.124;2023-04-03T11:50:46;97409.81;;;6.41
71640;BMP280;60912;48.968;10.124;2023-04-03T11:58:34;97392.47;;;6.83
71640;BMP280;60912;48.968;10.124;2023-04-03T12:01:03;97393.50;;;6.97
71640;BMP280;60912;48.968;10.124;2023-04-03T12:03:30;97397.28;;;6.94
71640;BMP280;60912;48.968;10.124;2023-04-03T12:08:27;97396.28;;;7.03
71640;BMP280;60912;48.968;10.124;2023-04-03T12:13:34;97386.81;;;7.15
71640;BMP280;60912;48.968;10.124;2023-04-03T12:16:00;97382.31;;;7.45
71640;BMP280;60912;48.968;10.124;2023-04-03T12:18:53;97387.53;;;7.65
71640;BMP280;60912;48.968;10.124;2023-04-03T12:26:25;97376.09;;;7.39
71640;BMP280;60912;48.968;10.124;2023-04-03T12:28:54;97374.84;;;7.18
71640;BMP280;60912;48.968;10.124;2023-04-03T12:31:22;97378.31;;;7.24
71640;BMP280;60912;48.968;10.124;2023-04-03T12:34:12;97377.81;;;7.09
71640;BMP280;60912;48.968;10.124;2023-04-03T12:42:41;97385.50;;;6.77
71640;BMP280;60912;48.968;10.124;2023-04-03T12:45:20;97374.03;;;6.84
71640;BMP280;60912;48.968;10.124;2023-04-03T12:47:53;97375.31;;;6.88
71640;BMP280;60912;48.968;10.124;2023-04-03T12:52:59;97366.13;;;7.08
71640;BMP280;60912;48.968;10.124;2023-04-03T12:55:26;97370.84;;;7.41
71640;BMP280;60912;48.968;10.124;2023-04-03T12:57:52;97361.06;;;7.74
71640;BMP280;60912;48.968;10.124;2023-04-03T13:02:51;97361.41;;;8.22
71640;BMP280;60912;48.968;10.124;2023-04-03T13:05:19;97357.44;;;8.18
71640;BMP280;60912;48.968;10.124;2023-04-03T13:07:49;97357.72;;;8.08
71640;BMP280;60912;48.968;10.124;2023-04-03T13:10:17;97361.78;;;7.80
71640;BMP280;60912;48.968;10.124;2023-04-03T13:15:39;97361.97;;;8.04
71640;BMP280;60912;48.968;10.124;2023-04-03T13:18:41;97356.88;;;8.30
71640;BMP280;60912;48.968;10.124;2023-04-03T13:21:20;97348.78;;;8.43
71640;BMP280;60912;48.968;10.124;2023-04-03T13:23:48;97347.50;;;8.09
71640;BMP280;60912;48.968;10.124;2023-04-03T13:26:17;97352.56;;;7.77
71640;BMP280;60912;48.968;10.124;2023-04-03T13:28:45;97344.94;;;7.42
71640;BMP280;60912;48.968;10.124;2023-04-03T13:31:27;97348.41;;;7.37
71640;BMP280;60912;48.968;10.124;2023-04-03T13:34:18;97351.34;;;7.61
71640;BMP280;60912;48.968;10.124;2023-04-03T13:36:56;97351.84;;;7.77
71640;BMP280;60912;48.968;10.124;2023-04-03T13:39:33;97351.78;;;7.88
71640;BMP280;60912;48.968;10.124;2023-04-03T13:42:03;97341.81;;;7.85
71640;BMP280;60912;48.968;10.124;2023-04-03T13:44:39;97357.75;;;7.92
71640;BMP280;60912;48.968;10.124;2023-04-03T13:49:43;97351.88;;;7.43
71640;BMP280;60912;48.968;10.124;2023-04-03T13:52:39;97354.63;;;7.43
71640;BMP280;60912;48.968;10.124;2023-04-03T14:03:03;97340.16;;;7.54
71640;BMP280;60912;48.968;10.124;2023-04-03T14:05:36;97343.59;;;7.77
71640;BMP280;60912;48.968;10.124;2023-04-03T14:08:02;97337.25;;;8.04
71640;BMP280;60912;48.968;10.124;2023-04-03T14:10:27;97338.75;;;8.51
71640;BMP280;60912;48.968;10.124;2023-04-03T14:12:53;97337.63;;;9.01
71640;BMP280;60912;48.968;10.124;2023-04-03T14:15:26;97329.88;;;9.29
71640;BMP280;60912;48.968;10.124;2023-04-03T14:17:52;97332.63;;;9.05
71640;BMP280;60912;48.968;10.124;2023-04-03T14:20:20;97334.66;;;8.69
71640;BMP280;60912;48.968;10.124;2023-04-03T14:22:47;97339.25;;;8.09
71640;BMP280;60912;48.968;10.124;2023-04-03T14:25:14;97339.41;;;7.53
71640;BMP280;60912;48.968;10.124;2023-04-03T14:27:43;97331.91;;;7.71
71640;BMP280;60912;48.968;10.124;2023-04-03T14:30:18;97333.72;;;7.23
71640;BMP280;60912;48.968;10.124;2023-04-03T14:32:45;97327.47;;;7.34
71640;BMP280;60912;48.968;10.124;2023-04-03T14:35:12;97329.47;;;7.39
71640;BMP280;60912;48.968;10.124;2023-04-03T14:37:38;97321.44;;;7.63
71640;BMP280;60912;48.968;10.124;2023-04-03T14:40:06;97316.06;;;8.04
71640;BMP280;60912;48.968;10.124;2023-04-03T14:42:36;97323.97;;;8.19
71640;BMP280;60912;48.968;10.124;2023-04-03T14:45:05;97309.63;;;8.37
71640;BMP280;60912;48.968;10.124;2023-04-03T14:47:32;97307.94;;;8.70
71640;BMP280;60912;48.968;10.124;2023-04-03T14:50:01;97305.22;;;8.94
71640;BMP280;60912;48.968;10.124;2023-04-03T14:52:31;97307.63;;;9.03
71640;BMP280;60912;48.968;10.124;2023-04-03T14:54:57;97314.00;;;8.87
71640;BMP280;60912;48.968;10.124;2023-04-03T14:57:24;97318.72;;;8.21
71640;BMP280;60912;48.968;10.124;2023-04-03T14:59:50;97303.66;;;7.87
71640;BMP280;60912;48.968;10.124;2023-04-03T15:04:47;97311.69;;;7.68
71640;BMP280;60912;48.968;10.124;2023-04-03T15:07:12;97307.19;;;7.71
71640;BMP280;60912;48.968;10.124;2023-04-03T15:09:38;97299.19;;;7.78
71640;BMP280;60912;48.968;10.124;2023-04-03T15:12:03;97304.91;;;7.86
71640;BMP280;60912;48.968;10.124;2023-04-03T15:14:29;97304.41;;;7.87
71640;BMP280;60912;48.968;10.124;2023-04-03T15:16:54;97299.72;;;7.71
71640;BMP280;60912;48.968;10.124;2023-04-03T15:19:20;97303.91;;;7.78
71640;BMP280;60912;48.968;10.124;2023-04-03T15:21:48;97298.97;;;7.71
71640;BMP280;60912;48.968;10.124;2023-04-03T15:24:13;97303.69;;;7.76
71640;BMP280;60912;48.968;10.124;2023-04-03T15:26:38;97301.31;;;8.02
71640;BMP280;60912;48.968;10.124;2023-04-03T15:29:04;97293.19;;;8.32
71640;BMP280;60912;48.968;10.124;2023-04-03T15:31:30;97307.53;;;8.55
71640;BMP280;60912;48.968;10.124;2023-04-03T15:33:56;97300.84;;;8.44
71640;BMP280;60912;48.968;10.124;2023-04-03T15:36:21;97284.78;;;8.54
71640;BMP280;60912;48.968;10.124;2023-04-03T15:38:48;97292.28;;;8.53
71640;BMP280;60912;48.968;10.124;2023-04-03T15:41:16;97299.31;;;8.49
71640;BMP280;60912;48.968;10.124;2023-04-03T15:43:42;97299.81;;;8.01
71640;BMP280;60912;48.968;10.124;2023-04-03T15:46:07;97309.41;;;7.78
71640;BMP280;60912;48.968;10.124;2023-04-03T15:48:33;97306.94;;;7.74
71640;BMP280;60912;48.968;10.124;2023-04-03T15:50:59;97313.50;;;7.43
71640;BMP280;60912;48.968;10.124;2023-04-03T15:53:25;97311.03;;;7.23
71640;BMP280;60912;48.968;10.124;2023-04-03T15:55:51;97302.34;;;7.19
71640;BMP280;60912;48.968;10.124;2023-04-03T15:58:16;97314.28;;;7.10
71640;BMP280;60912;48.968;10.124;2023-04-03T16:00:43;97311.81;;;7.07
71640;BMP280;60912;48.968;10.124;2023-04-03T16:03:16;97307.81;;;7.13